createdAt,value
2022-12-11T00:00:21.833Z,28.20
2022-12-11T00:02:48.746Z,32.70
2022-12-11T00:05:15.671Z,27.50
2022-12-11T00:07:42.525Z,24.60
2022-12-11T00:10:09.313Z,27.10
2022-12-11T00:12:36.004Z,24.00
2022-12-11T00:15:03.099Z,24.50
2022-12-11T00:17:29.776Z,25.40
2022-12-11T00:19:56.450Z,26.10
2022-12-11T00:22:23.195Z,24.20
2022-12-11T00:24:50.966Z,25.50
2022-12-11T00:27:17.629Z,27.30
2022-12-11T00:29:44.512Z,32.20
2022-12-11T00:32:11.340Z,26.70
2022-12-11T00:34:38.309Z,25.00
2022-12-11T00:37:05.116Z,25.60
2022-12-11T00:39:31.915Z,26.10
2022-12-11T00:41:58.640Z,22.60
2022-12-11T00:44:25.475Z,22.00
2022-12-11T00:46:52.282Z,23.30
2022-12-11T00:49:19.092Z,25.10
2022-12-11T00:51:45.857Z,21.10
2022-12-11T00:54:12.518Z,22.60
2022-12-11T00:56:39.305Z,22.60
2022-12-11T00:59:06.354Z,24.50
2022-12-11T01:01:33.198Z,22.40
2022-12-11T01:04:00.238Z,23.80
2022-12-11T01:06:28.286Z,21.50
2022-12-11T01:09:14.655Z,21.90
2022-12-11T01:11:42.808Z,23.40
2022-12-11T01:14:11.080Z,24.10
2022-12-11T01:16:37.843Z,19.30
2022-12-11T01:19:04.616Z,24.20
2022-12-11T01:21:31.320Z,21.40
2022-12-11T01:23:58.248Z,18.40
2022-12-11T01:26:24.987Z,17.90
2022-12-11T01:28:52.020Z,16.50
2022-12-11T01:31:20.241Z,16.80
2022-12-11T01:33:47.228Z,15.30
2022-12-11T01:36:18.320Z,17.60
2022-12-11T01:38:47.259Z,15.90
2022-12-11T01:41:15.830Z,22.10
2022-12-11T01:44:02.289Z,17.10
2022-12-11T01:46:31.848Z,17.20
2022-12-11T01:49:00.772Z,18.10
2022-12-11T01:51:31.258Z,17.60
2022-12-11T01:54:07.426Z,18.50
2022-12-11T01:56:36.544Z,16.80
2022-12-11T01:59:06.612Z,18.40
2022-12-11T02:01:42.605Z,15.60
2022-12-11T02:04:10.889Z,14.50
2022-12-11T02:06:41.999Z,15.00
2022-12-11T02:09:19.966Z,14.80
2022-12-11T02:11:52.717Z,16.30
2022-12-11T02:14:34.381Z,19.10
2022-12-11T02:17:19.400Z,13.60
2022-12-11T02:20:01.267Z,18.00
2022-12-11T02:23:08.495Z,18.10
2022-12-11T02:26:05.382Z,17.50
2022-12-11T02:28:49.135Z,17.10
2022-12-11T02:31:27.368Z,17.00
2022-12-11T02:34:18.441Z,19.20
2022-12-11T02:36:52.696Z,14.40
2022-12-11T02:39:21.989Z,13.50
2022-12-11T02:41:51.052Z,14.60
2022-12-11T02:44:26.696Z,16.20
2022-12-11T02:46:54.493Z,17.70
2022-12-11T02:49:23.515Z,17.80
2022-12-11T02:51:52.344Z,16.80
2022-12-11T02:54:30.849Z,18.20
2022-12-11T02:57:14.059Z,19.20
2022-12-11T02:59:45.628Z,19.60
2022-12-11T03:02:14.852Z,20.00
2022-12-11T03:04:43.750Z,20.30
2022-12-11T03:07:18.284Z,21.40
2022-12-11T03:09:47.886Z,19.40
2022-12-11T03:12:20.459Z,19.70
2022-12-11T03:14:48.313Z,14.70
2022-12-11T03:17:21.174Z,12.40
2022-12-11T03:19:55.398Z,13.90
2022-12-11T03:22:35.688Z,15.80
2022-12-11T03:25:11.597Z,14.70
2022-12-11T03:27:52.396Z,16.30
2022-12-11T03:30:24.272Z,15.00
2022-12-11T03:33:09.383Z,15.00
2022-12-11T03:35:51.835Z,17.90
2022-12-11T03:38:29.737Z,17.60
2022-12-11T03:41:01.599Z,17.90
2022-12-11T03:43:31.425Z,16.60
2022-12-11T03:46:00.576Z,15.80
2022-12-11T03:48:32.537Z,16.00
2022-12-11T03:51:03.920Z,16.00
2022-12-11T03:56:00.101Z,17.00
2022-12-11T03:58:26.900Z,17.10
2022-12-11T04:00:53.770Z,13.70
2022-12-11T04:03:20.592Z,12.80
2022-12-11T04:05:50.778Z,14.30
2022-12-11T04:08:22.624Z,12.20
2022-12-11T04:11:14.224Z,14.80
2022-12-11T04:13:41.555Z,11.70
2022-12-11T04:16:09.181Z,12.10
2022-12-11T04:18:54.322Z,14.30
2022-12-11T04:21:40.101Z,13.30
2022-12-11T04:24:17.207Z,13.30
2022-12-11T04:26:46.772Z,11.20
2022-12-11T04:29:14.713Z,12.50
2022-12-11T04:31:41.572Z,15.10
2022-12-11T04:34:08.700Z,13.70
2022-12-11T04:36:35.666Z,15.10
2022-12-11T04:39:04.895Z,14.90
2022-12-11T04:41:31.639Z,12.90
2022-12-11T04:43:58.523Z,12.60
2022-12-11T04:46:25.521Z,12.60
2022-12-11T04:48:57.102Z,15.70
2022-12-11T04:51:24.810Z,14.00
2022-12-11T04:53:51.666Z,13.00
2022-12-11T04:56:19.058Z,14.20
2022-12-11T04:58:46.578Z,14.50
2022-12-11T05:01:19.880Z,16.40
2022-12-11T05:03:47.355Z,14.00
2022-12-11T05:06:14.826Z,13.90
2022-12-11T05:08:42.635Z,15.00
2022-12-11T05:11:13.086Z,17.00
2022-12-11T05:13:40.475Z,13.30
2022-12-11T05:16:10.582Z,15.20
2022-12-11T05:18:37.631Z,15.60
2022-12-11T05:21:10.789Z,16.20
2022-12-11T05:23:38.385Z,12.50
2022-12-11T05:26:10.412Z,11.90
2022-12-11T05:28:38.675Z,14.20
2022-12-11T05:31:12.134Z,13.60
2022-12-11T05:33:39.064Z,15.60
2022-12-11T05:36:07.364Z,12.70
2022-12-11T05:38:34.449Z,12.80
2022-12-11T05:41:05.223Z,13.40
2022-12-11T05:43:35.776Z,14.20
2022-12-11T05:46:14.039Z,14.40
2022-12-11T05:48:41.731Z,15.80
2022-12-11T05:51:09.946Z,17.30
2022-12-11T05:53:38.724Z,15.50
2022-12-11T05:56:13.924Z,14.30
2022-12-11T05:58:42.164Z,14.40
2022-12-11T06:01:16.580Z,19.20
2022-12-11T06:03:44.195Z,16.10
2022-12-11T06:06:12.000Z,15.80
2022-12-11T06:08:39.247Z,18.90
2022-12-11T06:11:06.159Z,17.70
2022-12-11T06:13:33.677Z,20.20
2022-12-11T06:16:06.987Z,17.70
2022-12-11T06:18:39.142Z,18.30
2022-12-11T06:21:14.972Z,21.40
2022-12-11T06:23:43.315Z,19.50
2022-12-11T06:26:10.863Z,19.00
2022-12-11T06:28:38.184Z,19.60
2022-12-11T06:31:05.559Z,20.40
2022-12-11T06:33:32.290Z,18.40
2022-12-11T06:36:08.187Z,20.50
2022-12-11T06:38:36.382Z,20.30
2022-12-11T06:41:05.628Z,21.50
2022-12-11T06:43:34.549Z,25.00
2022-12-11T06:46:11.934Z,26.20
2022-12-11T06:48:42.958Z,24.10
2022-12-11T06:51:16.523Z,25.50
2022-12-11T06:53:43.819Z,30.40
2022-12-11T06:56:14.731Z,31.60
2022-12-11T06:58:43.394Z,30.90
2022-12-11T07:01:28.364Z,30.80
2022-12-11T07:03:57.231Z,35.40
2022-12-11T07:06:26.439Z,35.10
2022-12-11T07:08:53.869Z,32.50
2022-12-11T07:11:21.517Z,38.60
2022-12-11T07:13:48.371Z,35.50
2022-12-11T07:16:16.897Z,32.90
2022-12-11T07:18:48.912Z,33.10
2022-12-11T07:21:16.379Z,35.10
2022-12-11T07:23:43.293Z,37.10
2022-12-11T07:26:14.262Z,32.50
2022-12-11T07:28:41.966Z,34.10
2022-12-11T07:31:12.677Z,33.50
2022-12-11T07:33:40.455Z,36.90
2022-12-11T07:36:10.678Z,37.20
2022-12-11T07:38:37.745Z,36.50
2022-12-11T07:41:07.437Z,33.10
2022-12-11T07:43:35.394Z,32.70
2022-12-11T07:46:11.366Z,34.10
2022-12-11T07:48:40.621Z,35.00
2022-12-11T07:51:26.949Z,37.00
2022-12-11T07:53:57.712Z,34.40
2022-12-11T07:56:26.237Z,33.90
2022-12-11T07:58:53.762Z,37.40
2022-12-11T08:01:25.309Z,34.70
2022-12-11T08:03:53.186Z,36.40
2022-12-11T08:06:28.006Z,34.90
2022-12-11T08:08:56.619Z,34.50
2022-12-11T08:11:23.982Z,34.40
2022-12-11T08:13:50.863Z,38.60
2022-12-11T08:16:18.826Z,35.10
2022-12-11T08:18:47.043Z,32.90
2022-12-11T08:21:18.074Z,35.10
2022-12-11T08:23:45.755Z,31.80
2022-12-11T08:26:19.402Z,34.50
2022-12-11T08:28:46.471Z,33.50
2022-12-11T08:31:15.190Z,32.60
2022-12-11T08:33:42.231Z,36.90
2022-12-11T08:36:13.081Z,31.50
2022-12-11T08:38:42.496Z,30.40
2022-12-11T08:41:15.803Z,29.90
2022-12-11T08:43:43.321Z,31.80
2022-12-11T08:46:11.665Z,31.80
2022-12-11T08:48:40.871Z,30.40
2022-12-11T08:51:15.045Z,28.70
2022-12-11T08:53:42.542Z,30.90
2022-12-11T08:56:14.807Z,32.10
2022-12-11T08:58:42.845Z,26.90
2022-12-11T09:01:14.766Z,32.10
2022-12-11T09:03:42.093Z,32.10
2022-12-11T09:06:13.783Z,30.30
2022-12-11T09:08:43.940Z,31.00
2022-12-11T09:11:21.226Z,31.80
2022-12-11T09:13:48.392Z,33.50
2022-12-11T09:16:19.526Z,31.20
2022-12-11T09:18:49.957Z,25.70
2022-12-11T09:21:20.494Z,29.50
2022-12-11T09:23:47.837Z,29.10
2022-12-11T09:26:17.395Z,28.20
2022-12-11T09:28:46.887Z,25.30
2022-12-11T09:31:27.299Z,27.30
2022-12-11T09:33:58.649Z,27.00
2022-12-11T09:36:26.148Z,26.90
2022-12-11T09:38:54.063Z,24.20
2022-12-11T09:41:20.961Z,28.40
2022-12-11T09:44:29.861Z,29.80
2022-12-11T09:46:57.650Z,24.90
2022-12-11T09:49:32.632Z,28.90
2022-12-11T09:52:14.424Z,24.80
2022-12-11T09:54:50.537Z,25.90
2022-12-11T09:57:53.020Z,24.60
2022-12-11T10:00:29.934Z,25.40
2022-12-11T10:03:34.642Z,26.30
2022-12-11T10:06:23.617Z,29.70
2022-12-11T10:09:35.203Z,25.30
2022-12-11T10:12:11.155Z,27.30
2022-12-11T10:14:47.068Z,24.80
2022-12-11T10:17:22.899Z,24.80
2022-12-11T10:19:50.212Z,24.80
2022-12-11T10:22:31.270Z,25.30
2022-12-11T10:25:23.073Z,28.00
2022-12-11T10:30:28.410Z,26.20
2022-12-11T10:33:21.893Z,29.70
2022-12-11T10:35:55.841Z,23.30
2022-12-11T10:38:36.193Z,27.10
2022-12-11T10:41:12.067Z,29.20
2022-12-11T10:43:46.101Z,25.80
2022-12-11T10:46:28.160Z,25.40
2022-12-11T10:49:00.789Z,21.30
2022-12-11T10:51:30.461Z,22.20
2022-12-11T10:54:17.673Z,21.60
2022-12-11T10:56:47.664Z,21.20
2022-12-11T10:59:33.421Z,20.50
2022-12-11T11:02:00.395Z,20.10
2022-12-11T11:04:32.953Z,22.20
2022-12-11T11:07:14.227Z,24.10
2022-12-11T11:09:41.199Z,20.30
2022-12-11T11:12:23.955Z,21.50
2022-12-11T11:15:04.174Z,19.90
2022-12-11T11:17:35.139Z,19.60
2022-12-11T11:20:15.217Z,22.30
2022-12-11T11:22:51.047Z,18.20
2022-12-11T11:25:21.780Z,18.60
2022-12-11T11:27:53.415Z,22.20
2022-12-11T11:30:26.527Z,26.60
2022-12-11T11:33:04.294Z,25.00
2022-12-11T11:35:31.834Z,21.20
2022-12-11T11:38:20.075Z,21.50
2022-12-11T11:41:07.592Z,20.90
2022-12-11T11:43:45.759Z,22.80
2022-12-11T11:46:24.918Z,20.90
2022-12-11T11:49:18.672Z,20.80
2022-12-11T11:52:00.473Z,21.90
2022-12-11T11:54:42.611Z,20.00
2022-12-11T11:57:24.523Z,20.90
2022-12-11T12:00:09.225Z,20.30
2022-12-11T12:02:37.263Z,19.40
2022-12-11T12:05:04.698Z,26.30
2022-12-11T12:07:45.308Z,23.20
2022-12-11T12:10:46.605Z,22.30
2022-12-11T12:13:58.407Z,25.80
2022-12-11T12:16:53.787Z,19.50
2022-12-11T12:19:44.841Z,23.20
2022-12-11T12:22:31.850Z,28.10
2022-12-11T12:25:28.324Z,19.80
2022-12-11T12:28:34.227Z,22.30
2022-12-11T12:31:40.957Z,20.90
2022-12-11T12:34:34.268Z,19.70
2022-12-11T12:37:21.347Z,22.80
2022-12-11T12:40:10.445Z,21.30
2022-12-11T12:43:25.140Z,23.70
2022-12-11T12:46:30.163Z,22.20
2022-12-11T12:48:58.528Z,21.70
2022-12-11T12:51:26.598Z,21.20
2022-12-11T12:54:03.214Z,19.80
2022-12-11T12:56:32.670Z,23.30
2022-12-11T12:58:59.511Z,20.30
2022-12-11T13:01:30.913Z,24.60
2022-12-11T13:06:38.805Z,18.70
2022-12-11T13:09:28.966Z,18.60
2022-12-11T13:11:59.554Z,23.10
2022-12-11T13:14:31.797Z,22.40
2022-12-11T13:17:20.225Z,24.60
2022-12-11T13:19:49.652Z,22.10
2022-12-11T13:22:16.433Z,20.30
2022-12-11T13:25:01.000Z,20.80
2022-12-11T13:27:42.161Z,21.60
2022-12-11T13:30:14.667Z,20.50
2022-12-11T13:32:52.333Z,20.70
2022-12-11T13:35:20.565Z,22.00
2022-12-11T13:37:51.685Z,23.20
2022-12-11T13:40:24.439Z,24.10
2022-12-11T13:42:59.751Z,21.60
2022-12-11T13:45:44.610Z,18.70
2022-12-11T13:48:20.303Z,21.20
2022-12-11T13:50:50.739Z,19.70
2022-12-11T13:53:19.137Z,22.50
2022-12-11T13:55:55.970Z,18.70
2022-12-11T13:58:23.295Z,21.20
2022-12-11T14:01:10.530Z,21.40
2022-12-11T14:03:56.905Z,24.20
2022-12-11T14:06:25.680Z,22.30
2022-12-11T14:08:56.632Z,22.10
2022-12-11T14:11:50.921Z,23.90
2022-12-11T14:14:33.742Z,21.20
2022-12-11T14:17:00.890Z,22.30
2022-12-11T14:19:28.304Z,21.10
2022-12-11T14:22:07.358Z,18.80
2022-12-11T14:24:34.383Z,22.40
2022-12-11T14:27:01.227Z,22.40
2022-12-11T14:29:33.108Z,23.20
2022-12-11T14:32:06.145Z,23.00
2022-12-11T14:34:45.420Z,22.80
2022-12-11T14:37:15.484Z,24.90
2022-12-11T14:40:06.432Z,25.40
2022-12-11T14:42:47.658Z,23.50
2022-12-11T14:45:46.594Z,26.00
2022-12-11T14:48:27.696Z,22.10
2022-12-11T14:50:59.110Z,23.80
2022-12-11T14:56:00.987Z,21.30
2022-12-11T14:58:28.781Z,22.20
2022-12-11T15:01:02.958Z,21.40
2022-12-11T15:03:38.572Z,25.50
2022-12-11T15:06:29.851Z,22.40
2022-12-11T15:08:57.043Z,23.40
2022-12-11T15:11:30.392Z,28.00
2022-12-11T15:14:00.731Z,27.10
2022-12-11T15:16:33.113Z,24.00
2022-12-11T15:18:59.961Z,29.10
2022-12-11T15:21:37.204Z,26.70
2022-12-11T15:24:06.328Z,30.40
2022-12-11T15:26:43.743Z,32.00
2022-12-11T15:29:38.097Z,31.40
2022-12-11T15:32:07.843Z,31.70
2022-12-11T15:34:44.324Z,29.50
2022-12-11T15:37:28.398Z,33.60
2022-12-11T15:39:57.741Z,29.40
2022-12-11T15:42:35.428Z,34.40
2022-12-11T15:45:06.924Z,33.10
2022-12-11T15:50:16.154Z,34.60
2022-12-11T15:52:43.268Z,37.50
2022-12-11T15:55:10.960Z,32.50
2022-12-11T15:57:44.206Z,33.30
2022-12-11T16:00:18.024Z,31.80
2022-12-11T16:02:46.050Z,35.60
2022-12-11T16:05:14.140Z,33.50
2022-12-11T16:07:41.020Z,29.70
2022-12-11T16:10:14.930Z,31.60
2022-12-11T16:12:42.704Z,33.40
2022-12-11T16:15:19.937Z,33.00
2022-12-11T16:17:50.024Z,33.80
2022-12-11T16:20:16.945Z,32.40
2022-12-11T16:22:44.054Z,34.80
2022-12-11T16:25:11.213Z,29.90
2022-12-11T16:27:38.243Z,35.20
2022-12-11T16:30:05.851Z,32.10
2022-12-11T16:32:32.764Z,34.30
2022-12-11T16:35:00.453Z,32.70
2022-12-11T16:37:27.300Z,31.20
2022-12-11T16:39:54.042Z,35.30
2022-12-11T16:42:20.852Z,34.80
2022-12-11T16:44:47.902Z,35.90
2022-12-11T16:47:14.673Z,39.90
2022-12-11T16:49:44.077Z,31.40
2022-12-11T16:52:10.751Z,35.40
2022-12-11T16:54:37.534Z,38.60
2022-12-11T16:57:04.187Z,45.50
2022-12-11T16:59:36.584Z,38.90
2022-12-11T17:02:04.602Z,32.10
2022-12-11T17:04:32.032Z,34.10
2022-12-11T17:06:58.769Z,27.80
2022-12-11T17:09:25.517Z,29.00
2022-12-11T17:11:52.379Z,34.60
2022-12-11T17:14:19.640Z,35.30
2022-12-11T17:16:47.505Z,31.20
2022-12-11T17:19:15.096Z,35.10
2022-12-11T17:21:44.801Z,35.80
2022-12-11T17:24:16.360Z,32.50
2022-12-11T17:26:43.482Z,36.00
2022-12-11T17:29:11.629Z,32.60
2022-12-11T17:31:38.955Z,38.10
2022-12-11T17:34:06.517Z,34.50
2022-12-11T17:36:33.577Z,33.70
2022-12-11T17:39:00.353Z,36.00
2022-12-11T17:41:27.143Z,35.80
2022-12-11T17:43:55.445Z,35.30
2022-12-11T17:46:22.586Z,33.80
2022-12-11T17:48:49.374Z,32.00
2022-12-11T17:51:23.057Z,36.00
2022-12-11T17:53:51.042Z,33.40
2022-12-11T17:56:18.927Z,33.10
2022-12-11T17:58:45.803Z,32.40
2022-12-11T18:01:13.157Z,30.60
2022-12-11T18:03:41.044Z,29.20
2022-12-11T18:06:14.012Z,30.60
2022-12-11T18:08:41.788Z,34.70
2022-12-11T18:11:17.116Z,34.40
2022-12-11T18:13:45.158Z,30.80
2022-12-11T18:16:18.619Z,30.40
2022-12-11T18:18:46.923Z,32.60
2022-12-11T18:21:18.825Z,33.60
2022-12-11T18:23:46.254Z,34.40
2022-12-11T18:26:13.870Z,29.50
2022-12-11T18:28:41.429Z,35.20
2022-12-11T18:31:09.298Z,29.50
2022-12-11T18:33:38.913Z,35.60
2022-12-11T18:36:06.838Z,33.80
2022-12-11T18:38:34.027Z,29.60
2022-12-11T18:41:06.025Z,31.10
2022-12-11T18:43:32.855Z,30.50
2022-12-11T18:45:59.774Z,30.20
2022-12-11T18:48:26.517Z,32.10
2022-12-11T18:50:53.734Z,29.80
2022-12-11T18:53:20.481Z,36.30
2022-12-11T18:55:48.320Z,32.70
2022-12-11T18:58:18.724Z,33.60
2022-12-11T19:00:46.112Z,36.30
2022-12-11T19:03:13.527Z,34.80
2022-12-11T19:05:43.081Z,34.20
2022-12-11T19:08:13.127Z,30.40
2022-12-11T19:10:44.562Z,29.90
2022-12-11T19:15:42.600Z,34.10
2022-12-11T19:18:10.275Z,30.50
2022-12-11T19:21:04.924Z,32.30
2022-12-11T19:23:26.243Z,28.80
2022-12-11T19:25:52.937Z,29.30
2022-12-11T19:28:19.627Z,29.00
2022-12-11T19:30:48.651Z,27.50
2022-12-11T19:33:16.047Z,23.60
2022-12-11T19:35:43.872Z,30.90
2022-12-11T19:38:12.287Z,27.20
2022-12-11T19:40:43.618Z,28.90
2022-12-11T19:43:10.700Z,31.20
2022-12-11T19:45:37.642Z,28.40
2022-12-11T19:48:05.241Z,29.80
2022-12-11T19:50:35.639Z,31.60
2022-12-11T19:53:03.326Z,29.00
2022-12-11T19:55:30.207Z,33.80
2022-12-11T19:57:56.932Z,26.50
2022-12-11T20:00:24.171Z,26.90
2022-12-11T20:02:51.436Z,29.70
2022-12-11T20:05:18.390Z,29.90
2022-12-11T20:07:45.407Z,29.30
2022-12-11T20:10:12.219Z,32.90
2022-12-11T20:12:39.822Z,30.20
2022-12-11T20:15:07.795Z,28.90
2022-12-11T20:17:36.523Z,29.60
2022-12-11T20:20:04.045Z,30.90
2022-12-11T20:22:30.978Z,34.20
2022-12-11T20:24:57.630Z,29.00
2022-12-11T20:27:25.526Z,28.90
2022-12-11T20:29:52.215Z,30.50
2022-12-11T20:32:18.960Z,26.70
2022-12-11T20:34:45.643Z,30.30
2022-12-11T20:37:12.473Z,27.20
2022-12-11T20:39:40.284Z,27.70
2022-12-11T20:42:09.293Z,28.20
2022-12-11T20:44:36.013Z,30.60
2022-12-11T20:47:02.964Z,30.60
2022-12-11T20:49:29.736Z,30.40
2022-12-11T20:51:56.557Z,30.10
2022-12-11T20:54:23.417Z,31.10
2022-12-11T20:56:50.457Z,30.90
2022-12-11T20:59:18.127Z,32.10
2022-12-11T21:01:45.223Z,31.20
2022-12-11T21:04:12.027Z,30.70
2022-12-11T21:06:40.008Z,30.70
2022-12-11T21:09:18.485Z,31.00
2022-12-11T21:11:45.688Z,29.40
2022-12-11T21:14:13.726Z,35.10
2022-12-11T21:16:40.636Z,34.10
2022-12-11T21:19:11.304Z,29.20
2022-12-11T21:21:44.499Z,33.30
2022-12-11T21:24:19.062Z,30.00
2022-12-11T21:26:46.917Z,31.30
2022-12-11T21:29:13.778Z,29.20
2022-12-11T21:31:41.160Z,31.90
2022-12-11T21:34:08.242Z,29.10
2022-12-11T21:36:35.011Z,29.20
2022-12-11T21:39:02.511Z,29.10
2022-12-11T21:41:29.422Z,31.10
2022-12-11T21:45:07.238Z,29.20
2022-12-11T21:46:43.186Z,30.40
2022-12-11T21:49:10.040Z,27.50
2022-12-11T21:51:45.520Z,29.40
2022-12-11T21:54:17.685Z,29.70
2022-12-11T21:56:45.551Z,32.40
2022-12-11T21:59:12.944Z,31.40
2022-12-11T22:01:42.380Z,27.60
2022-12-11T22:04:10.842Z,27.80
2022-12-11T22:06:39.544Z,27.60
2022-12-11T22:09:06.267Z,28.50
2022-12-11T22:11:34.407Z,30.80
2022-12-11T22:14:02.166Z,28.90
2022-12-11T22:16:29.030Z,30.60
2022-12-11T22:18:55.732Z,28.60
2022-12-11T22:21:22.666Z,32.00
2022-12-11T22:23:49.653Z,31.60
2022-12-11T22:26:22.464Z,25.10
2022-12-11T22:28:50.113Z,26.90
2022-12-11T22:31:20.689Z,28.40
2022-12-11T22:33:49.909Z,31.70
2022-12-11T22:36:18.270Z,24.30
2022-12-11T22:38:46.371Z,26.30
2022-12-11T22:41:22.158Z,24.40
2022-12-11T22:43:49.907Z,29.90
2022-12-11T22:46:19.231Z,31.40
2022-12-11T22:48:46.428Z,28.40
2022-12-11T22:51:13.599Z,28.80
2022-12-11T22:53:40.314Z,29.90
2022-12-11T22:56:10.028Z,26.80
2022-12-11T22:58:37.018Z,27.80
2022-12-11T23:01:12.934Z,28.00
2022-12-11T23:03:40.577Z,29.30
2022-12-11T23:06:11.055Z,27.60
2022-12-11T23:08:39.228Z,24.70
2022-12-11T23:11:12.893Z,25.60
2022-12-11T23:13:40.415Z,28.60
2022-12-11T23:16:07.167Z,28.00
2022-12-11T23:18:33.921Z,28.90
2022-12-11T23:21:01.074Z,25.60
2022-12-11T23:23:28.045Z,26.50
2022-12-11T23:25:56.318Z,25.20
2022-12-11T23:28:23.173Z,30.00
2022-12-11T23:30:50.225Z,27.60
2022-12-11T23:33:17.059Z,27.50
2022-12-11T23:35:44.670Z,28.10
2022-12-11T23:38:11.429Z,26.50
2022-12-11T23:40:38.778Z,23.60
2022-12-11T23:43:05.513Z,28.90
2022-12-11T23:45:32.279Z,26.40
2022-12-11T23:47:59.053Z,30.40
2022-12-11T23:50:25.861Z,24.50
2022-12-11T23:52:52.602Z,27.70
2022-12-11T23:55:20.118Z,25.00
2022-12-11T23:57:46.906Z,26.50
